sensor_id;sensor_type;location;lat;lon;timestamp;P1;durP1;ratioP1;P2;durP2;ratioP2
37205;SDS011;23099;42.636;23.198;2023-04-01T00:02:23;16.05;;;1.67;;
37205;SDS011;23099;42.636;23.198;2023-04-01T00:04:50;9.02;;;1.60;;
37205;SDS011;23099;42.636;23.198;2023-04-01T00:07:16;14.73;;;2.03;;
37205;SDS011;23099;42.636;23.198;2023-04-01T00:09:43;10.63;;;1.60;;
37205;SDS011;23099;42.636;23.198;2023-04-01T00:12:11;11.13;;;1.60;;
37205;SDS011;23099;42.636;23.198;2023-04-01T00:14:38;13.20;;;1.90;;
37205;SDS011;23099;42.636;23.198;2023-04-01T00:17:05;8.13;;;1.20;;
37205;SDS011;23099;42.636;23.198;2023-04-01T00:19:32;9.25;;;1.48;;
37205;SDS011;23099;42.636;23.198;2023-04-01T00:21:58;4.53;;;0.93;;
37205;SDS011;23099;42.636;23.198;2023-04-01T00:24:25;10.77;;;1.50;;
37205;SDS011;23099;42.636;23.198;2023-04-01T00:26:52;9.73;;;1.88;;
37205;SDS011;23099;42.636;23.198;2023-04-01T00:29:20;10.48;;;1.52;;
37205;SDS011;23099;42.636;23.198;2023-04-01T00:31:49;11.85;;;1.70;;
37205;SDS011;23099;42.636;23.198;2023-04-01T00:34:15;6.47;;;1.00;;
37205;SDS011;23099;42.636;23.198;2023-04-01T00:36:42;8.35;;;1.10;;
37205;SDS011;23099;42.636;23.198;2023-04-01T00:39:09;9.52;;;1.20;;
37205;SDS011;23099;42.636;23.198;2023-04-01T00:41:35;7.03;;;1.58;;
37205;SDS011;23099;42.636;23.198;2023-04-01T00:44:14;7.00;;;0.85;;
37205;SDS011;23099;42.636;23.198;2023-04-01T00:46:45;9.07;;;0.80;;
37205;SDS011;23099;42.636;23.198;2023-04-01T00:49:12;7.72;;;0.90;;
37205;SDS011;23099;42.636;23.198;2023-04-01T00:51:39;8.45;;;0.90;;
37205;SDS011;23099;42.636;23.198;2023-04-01T00:54:08;7.07;;;0.90;;
37205;SDS011;23099;42.636;23.198;2023-04-01T00:56:36;8.73;;;1.27;;
37205;SDS011;23099;42.636;23.198;2023-04-01T00:59:06;9.02;;;1.00;;
37205;SDS011;23099;42.636;23.198;2023-04-01T01:01:37;8.88;;;1.25;;
37205;SDS011;23099;42.636;23.198;2023-04-01T01:04:05;10.77;;;1.27;;
37205;SDS011;23099;42.636;23.198;2023-04-01T01:06:39;6.75;;;0.90;;
37205;SDS011;23099;42.636;23.198;2023-04-01T01:09:15;8.98;;;0.90;;
37205;SDS011;23099;42.636;23.198;2023-04-01T01:11:53;5.32;;;1.00;;
37205;SDS011;23099;42.636;23.198;2023-04-01T01:14:26;6.03;;;0.88;;
37205;SDS011;23099;42.636;23.198;2023-04-01T01:17:04;9.55;;;1.00;;
37205;SDS011;23099;42.636;23.198;2023-04-01T01:19:43;6.43;;;1.23;;
37205;SDS011;23099;42.636;23.198;2023-04-01T01:22:36;9.55;;;1.15;;
37205;SDS011;23099;42.636;23.198;2023-04-01T01:25:18;8.20;;;0.90;;
37205;SDS011;23099;42.636;23.198;2023-04-01T01:27:58;5.60;;;0.90;;
37205;SDS011;23099;42.636;23.198;2023-04-01T01:30:41;8.80;;;1.25;;
37205;SDS011;23099;42.636;23.198;2023-04-01T01:33:20;12.57;;;1.05;;
37205;SDS011;23099;42.636;23.198;2023-04-01T01:35:59;6.43;;;0.88;;
37205;SDS011;23099;42.636;23.198;2023-04-01T01:38:31;8.25;;;0.85;;
37205;SDS011;23099;42.636;23.198;2023-04-01T01:41:00;3.90;;;0.75;;
37205;SDS011;23099;42.636;23.198;2023-04-01T01:43:30;7.78;;;0.95;;
37205;SDS011;23099;42.636;23.198;2023-04-01T01:46:00;7.03;;;1.00;;
37205;SDS011;23099;42.636;23.198;2023-04-01T01:48:31;5.57;;;0.80;;
37205;SDS011;23099;42.636;23.198;2023-04-01T01:51:02;6.50;;;1.30;;
37205;SDS011;23099;42.636;23.198;2023-04-01T01:53:31;11.95;;;1.65;;
37205;SDS011;23099;42.636;23.198;2023-04-01T01:55:58;14.43;;;2.15;;
37205;SDS011;23099;42.636;23.198;2023-04-01T01:58:25;11.27;;;1.30;;
37205;SDS011;23099;42.636;23.198;2023-04-01T02:00:57;13.48;;;2.45;;
37205;SDS011;23099;42.636;23.198;2023-04-01T02:03:27;9.15;;;1.70;;
37205;SDS011;23099;42.636;23.198;2023-04-01T02:05:58;11.90;;;1.77;;
37205;SDS011;23099;42.636;23.198;2023-04-01T02:08:30;12.50;;;2.00;;
37205;SDS011;23099;42.636;23.198;2023-04-01T02:11:02;12.00;;;1.40;;
37205;SDS011;23099;42.636;23.198;2023-04-01T02:13:33;12.93;;;1.63;;
37205;SDS011;23099;42.636;23.198;2023-04-01T02:16:05;8.88;;;1.00;;
37205;SDS011;23099;42.636;23.198;2023-04-01T02:18:34;12.05;;;1.92;;
37205;SDS011;23099;42.636;23.198;2023-04-01T02:21:04;11.90;;;1.92;;
37205;SDS011;23099;42.636;23.198;2023-04-01T02:23:35;8.32;;;0.98;;
37205;SDS011;23099;42.636;23.198;2023-04-01T02:26:03;6.65;;;0.80;;
37205;SDS011;23099;42.636;23.198;2023-04-01T02:28:32;6.97;;;1.00;;
37205;SDS011;23099;42.636;23.198;2023-04-01T02:31:00;13.88;;;1.42;;
37205;SDS011;23099;42.636;23.198;2023-04-01T02:33:28;10.98;;;1.35;;
37205;SDS011;23099;42.636;23.198;2023-04-01T02:35:57;12.23;;;1.63;;
37205;SDS011;23099;42.636;23.198;2023-04-01T02:38:24;10.18;;;1.90;;
37205;SDS011;23099;42.636;23.198;2023-04-01T02:40:57;8.20;;;1.25;;
37205;SDS011;23099;42.636;23.198;2023-04-01T02:43:25;11.25;;;1.48;;
37205;SDS011;23099;42.636;23.198;2023-04-01T02:45:52;8.88;;;1.50;;
37205;SDS011;23099;42.636;23.198;2023-04-01T02:48:19;7.80;;;0.70;;
37205;SDS011;23099;42.636;23.198;2023-04-01T02:50:46;5.63;;;0.98;;
37205;SDS011;23099;42.636;23.198;2023-04-01T02:53:13;5.95;;;0.90;;
37205;SDS011;23099;42.636;23.198;2023-04-01T02:55:39;5.30;;;0.70;;
37205;SDS011;23099;42.636;23.198;2023-04-01T02:58:07;6.95;;;0.70;;
37205;SDS011;23099;42.636;23.198;2023-04-01T03:03:01;8.48;;;1.35;;
37205;SDS011;23099;42.636;23.198;2023-04-01T03:05:28;11.18;;;1.00;;
37205;SDS011;23099;42.636;23.198;2023-04-01T03:07:55;5.68;;;0.80;;
37205;SDS011;23099;42.636;23.198;2023-04-01T03:10:22;7.53;;;0.95;;
37205;SDS011;23099;42.636;23.198;2023-04-01T03:12:48;7.90;;;0.98;;
37205;SDS011;23099;42.636;23.198;2023-04-01T03:15:16;10.55;;;1.13;;
37205;SDS011;23099;42.636;23.198;2023-04-01T03:17:43;8.20;;;1.17;;
37205;SDS011;23099;42.636;23.198;2023-04-01T03:20:11;9.05;;;0.95;;
37205;SDS011;23099;42.636;23.198;2023-04-01T03:22:39;6.50;;;1.00;;
37205;SDS011;23099;42.636;23.198;2023-04-01T03:25:06;7.30;;;1.00;;
37205;SDS011;23099;42.636;23.198;2023-04-01T03:27:33;8.35;;;1.15;;
37205;SDS011;23099;42.636;23.198;2023-04-01T03:30:01;8.45;;;1.08;;
37205;SDS011;23099;42.636;23.198;2023-04-01T03:32:29;8.15;;;1.10;;
37205;SDS011;23099;42.636;23.198;2023-04-01T03:34:55;10.38;;;1.25;;
37205;SDS011;23099;42.636;23.198;2023-04-01T03:37:22;7.45;;;1.75;;
37205;SDS011;23099;42.636;23.198;2023-04-01T03:39:50;9.77;;;1.73;;
37205;SDS011;23099;42.636;23.198;2023-04-01T03:42:17;13.20;;;1.30;;
37205;SDS011;23099;42.636;23.198;2023-04-01T03:44:43;7.28;;;1.15;;
37205;SDS011;23099;42.636;23.198;2023-04-01T03:47:10;6.53;;;0.90;;
37205;SDS011;23099;42.636;23.198;2023-04-01T03:49:38;7.72;;;1.02;;
37205;SDS011;23099;42.636;23.198;2023-04-01T03:52:07;8.38;;;1.10;;
37205;SDS011;23099;42.636;23.198;2023-04-01T03:54:35;6.20;;;1.17;;
37205;SDS011;23099;42.636;23.198;2023-04-01T03:57:02;8.77;;;1.02;;
37205;SDS011;23099;42.636;23.198;2023-04-01T03:59:29;10.48;;;1.25;;
37205;SDS011;23099;42.636;23.198;2023-04-01T04:01:55;9.90;;;1.35;;
37205;SDS011;23099;42.636;23.198;2023-04-01T04:04:22;7.90;;;1.45;;
37205;SDS011;23099;42.636;23.198;2023-04-01T04:06:50;6.68;;;1.10;;
37205;SDS011;23099;42.636;23.198;2023-04-01T04:09:17;7.38;;;1.60;;
37205;SDS011;23099;42.636;23.198;2023-04-01T04:11:43;9.65;;;0.80;;
37205;SDS011;23099;42.636;23.198;2023-04-01T04:14:10;7.35;;;0.90;;
37205;SDS011;23099;42.636;23.198;2023-04-01T04:16:37;10.95;;;0.68;;
37205;SDS011;23099;42.636;23.198;2023-04-01T04:19:03;6.53;;;0.90;;
37205;SDS011;23099;42.636;23.198;2023-04-01T04:21:31;6.65;;;0.77;;
37205;SDS011;23099;42.636;23.198;2023-04-01T04:23:59;9.45;;;0.60;;
37205;SDS011;23099;42.636;23.198;2023-04-01T04:26:26;7.07;;;1.20;;
37205;SDS011;23099;42.636;23.198;2023-04-01T04:28:54;6.65;;;0.85;;
37205;SDS011;23099;42.636;23.198;2023-04-01T04:31:22;5.05;;;0.70;;
37205;SDS011;23099;42.636;23.198;2023-04-01T04:33:49;6.63;;;1.00;;
37205;SDS011;23099;42.636;23.198;2023-04-01T04:36:16;7.28;;;0.80;;
37205;SDS011;23099;42.636;23.198;2023-04-01T04:38:43;10.40;;;1.23;;
37205;SDS011;23099;42.636;23.198;2023-04-01T04:41:12;10.18;;;1.10;;
37205;SDS011;23099;42.636;23.198;2023-04-01T04:43:39;10.52;;;1.75;;
37205;SDS011;23099;42.636;23.198;2023-04-01T04:46:06;8.57;;;1.23;;
37205;SDS011;23099;42.636;23.198;2023-04-01T04:48:34;11.25;;;0.90;;
37205;SDS011;23099;42.636;23.198;2023-04-01T04:51:01;4.70;;;0.70;;
37205;SDS011;23099;42.636;23.198;2023-04-01T04:53:28;6.22;;;0.70;;
37205;SDS011;23099;42.636;23.198;2023-04-01T04:55:55;6.88;;;0.70;;
37205;SDS011;23099;42.636;23.198;2023-04-01T04:58:23;10.50;;;0.80;;
37205;SDS011;23099;42.636;23.198;2023-04-01T05:00:50;7.07;;;0.68;;
37205;SDS011;23099;42.636;23.198;2023-04-01T05:03:16;7.72;;;0.60;;
37205;SDS011;23099;42.636;23.198;2023-04-01T05:05:47;7.55;;;0.70;;
37205;SDS011;23099;42.636;23.198;2023-04-01T05:08:16;7.70;;;0.80;;
37205;SDS011;23099;42.636;23.198;2023-04-01T05:10:42;5.47;;;0.70;;
37205;SDS011;23099;42.636;23.198;2023-04-01T05:13:09;8.07;;;0.80;;
37205;SDS011;23099;42.636;23.198;2023-04-01T05:15:38;7.72;;;1.10;;
37205;SDS011;23099;42.636;23.198;2023-04-01T05:18:05;5.07;;;0.80;;
37205;SDS011;23099;42.636;23.198;2023-04-01T05:20:31;5.30;;;0.75;;
37205;SDS011;23099;42.636;23.198;2023-04-01T05:22:58;6.20;;;0.70;;
37205;SDS011;23099;42.636;23.198;2023-04-01T05:25:25;8.65;;;1.05;;
37205;SDS011;23099;42.636;23.198;2023-04-01T05:27:52;8.00;;;1.38;;
37205;SDS011;23099;42.636;23.198;2023-04-01T05:30:19;6.63;;;0.77;;
37205;SDS011;23099;42.636;23.198;2023-04-01T05:32:48;9.00;;;1.00;;
37205;SDS011;23099;42.636;23.198;2023-04-01T05:35:14;5.28;;;1.20;;
37205;SDS011;23099;42.636;23.198;2023-04-01T05:37:41;6.68;;;0.93;;
37205;SDS011;23099;42.636;23.198;2023-04-01T05:40:08;6.40;;;0.90;;
37205;SDS011;23099;42.636;23.198;2023-04-01T05:42:35;12.10;;;0.97;;
37205;SDS011;23099;42.636;23.198;2023-04-01T05:45:02;7.45;;;0.80;;
37205;SDS011;23099;42.636;23.198;2023-04-01T05:47:29;7.43;;;1.00;;
37205;SDS011;23099;42.636;23.198;2023-04-01T05:49:57;5.80;;;0.90;;
37205;SDS011;23099;42.636;23.198;2023-04-01T05:52:24;5.75;;;0.80;;
37205;SDS011;23099;42.636;23.198;2023-04-01T05:54:51;4.88;;;0.63;;
37205;SDS011;23099;42.636;23.198;2023-04-01T05:57:17;5.03;;;0.70;;
37205;SDS011;23099;42.636;23.198;2023-04-01T05:59:44;5.55;;;0.70;;
37205;SDS011;23099;42.636;23.198;2023-04-01T06:02:11;6.90;;;0.80;;
37205;SDS011;23099;42.636;23.198;2023-04-01T06:04:38;5.70;;;0.80;;
37205;SDS011;23099;42.636;23.198;2023-04-01T06:07:12;7.57;;;0.93;;
37205;SDS011;23099;42.636;23.198;2023-04-01T06:09:40;7.57;;;1.10;;
37205;SDS011;23099;42.636;23.198;2023-04-01T06:15:13;4.45;;;0.65;;
37205;SDS011;23099;42.636;23.198;2023-04-01T06:17:56;6.60;;;1.00;;
37205;SDS011;23099;42.636;23.198;2023-04-01T06:23:12;11.20;;;0.93;;
37205;SDS011;23099;42.636;23.198;2023-04-01T06:25:53;7.85;;;1.17;;
37205;SDS011;23099;42.636;23.198;2023-04-01T06:28:38;4.78;;;0.90;;
37205;SDS011;23099;42.636;23.198;2023-04-01T06:31:19;8.43;;;1.33;;
37205;SDS011;23099;42.636;23.198;2023-04-01T06:33:56;9.68;;;1.00;;
37205;SDS011;23099;42.636;23.198;2023-04-01T06:36:43;4.88;;;0.90;;
37205;SDS011;23099;42.636;23.198;2023-04-01T06:39:31;8.27;;;0.90;;
37205;SDS011;23099;42.636;23.198;2023-04-01T06:42:23;13.88;;;2.20;;
37205;SDS011;23099;42.636;23.198;2023-04-01T06:45:03;9.32;;;0.70;;
37205;SDS011;23099;42.636;23.198;2023-04-01T06:47:41;4.28;;;0.50;;
37205;SDS011;23099;42.636;23.198;2023-04-01T06:50:19;3.92;;;0.93;;
37205;SDS011;23099;42.636;23.198;2023-04-01T06:52:53;7.00;;;0.70;;
37205;SDS011;23099;42.636;23.198;2023-04-01T06:55:29;6.35;;;0.85;;
37205;SDS011;23099;42.636;23.198;2023-04-01T06:58:03;11.13;;;0.75;;
37205;SDS011;23099;42.636;23.198;2023-04-01T07:00:34;6.43;;;0.70;;
37205;SDS011;23099;42.636;23.198;2023-04-01T07:03:10;6.95;;;0.88;;
37205;SDS011;23099;42.636;23.198;2023-04-01T07:05:45;9.10;;;1.00;;
37205;SDS011;23099;42.636;23.198;2023-04-01T07:08:13;7.78;;;0.98;;
37205;SDS011;23099;42.636;23.198;2023-04-01T07:10:47;9.75;;;1.10;;
37205;SDS011;23099;42.636;23.198;2023-04-01T07:13:18;5.32;;;1.00;;
37205;SDS011;23099;42.636;23.198;2023-04-01T07:15:54;9.68;;;1.42;;
37205;SDS011;23099;42.636;23.198;2023-04-01T07:18:28;8.38;;;1.42;;
37205;SDS011;23099;42.636;23.198;2023-04-01T07:20:59;12.63;;;1.58;;
37205;SDS011;23099;42.636;23.198;2023-04-01T07:23:28;16.10;;;1.20;;
37205;SDS011;23099;42.636;23.198;2023-04-01T07:26:04;5.70;;;1.05;;
37205;SDS011;23099;42.636;23.198;2023-04-01T07:28:37;10.18;;;0.90;;
37205;SDS011;23099;42.636;23.198;2023-04-01T07:31:07;8.50;;;0.90;;
37205;SDS011;23099;42.636;23.198;2023-04-01T07:33:43;8.60;;;1.30;;
37205;SDS011;23099;42.636;23.198;2023-04-01T07:36:16;11.57;;;1.35;;
37205;SDS011;23099;42.636;23.198;2023-04-01T07:38:55;8.97;;;1.00;;
37205;SDS011;23099;42.636;23.198;2023-04-01T07:41:30;10.57;;;1.48;;
37205;SDS011;23099;42.636;23.198;2023-04-01T07:44:07;6.97;;;1.00;;
37205;SDS011;23099;42.636;23.198;2023-04-01T07:46:51;9.52;;;1.65;;
37205;SDS011;23099;42.636;23.198;2023-04-01T07:49:27;8.98;;;1.83;;
37205;SDS011;23099;42.636;23.198;2023-04-01T07:52:04;5.70;;;0.98;;
37205;SDS011;23099;42.636;23.198;2023-04-01T07:54:37;12.45;;;1.70;;
37205;SDS011;23099;42.636;23.198;2023-04-01T07:57:14;8.30;;;1.48;;
37205;SDS011;23099;42.636;23.198;2023-04-01T07:59:48;12.15;;;2.25;;
37205;SDS011;23099;42.636;23.198;2023-04-01T08:02:26;9.02;;;1.17;;
37205;SDS011;23099;42.636;23.198;2023-04-01T08:05:09;7.60;;;1.10;;
37205;SDS011;23099;42.636;23.198;2023-04-01T08:07:47;9.80;;;1.40;;
37205;SDS011;23099;42.636;23.198;2023-04-01T08:10:24;11.02;;;1.80;;
37205;SDS011;23099;42.636;23.198;2023-04-01T08:13:01;12.85;;;2.90;;
37205;SDS011;23099;42.636;23.198;2023-04-01T08:15:34;6.40;;;1.17;;
37205;SDS011;23099;42.636;23.198;2023-04-01T08:18:11;9.68;;;0.95;;
37205;SDS011;23099;42.636;23.198;2023-04-01T08:20:47;10.55;;;1.13;;
37205;SDS011;23099;42.636;23.198;2023-04-01T08:23:17;6.90;;;0.75;;
37205;SDS011;23099;42.636;23.198;2023-04-01T08:25:48;9.85;;;1.20;;
37205;SDS011;23099;42.636;23.198;2023-04-01T08:28:21;9.52;;;1.15;;
37205;SDS011;23099;42.636;23.198;2023-04-01T08:30:52;11.02;;;0.90;;
37205;SDS011;23099;42.636;23.198;2023-04-01T08:33:24;5.68;;;0.90;;
37205;SDS011;23099;42.636;23.198;2023-04-01T08:35:54;9.18;;;1.00;;
37205;SDS011;23099;42.636;23.198;2023-04-01T08:38:26;8.93;;;1.27;;
37205;SDS011;23099;42.636;23.198;2023-04-01T08:41:07;9.05;;;0.80;;
37205;SDS011;23099;42.636;23.198;2023-04-01T08:44:07;7.93;;;1.05;;
37205;SDS011;23099;42.636;23.198;2023-04-01T08:46:57;11.50;;;1.48;;
37205;SDS011;23099;42.636;23.198;2023-04-01T08:49:43;9.65;;;1.10;;
37205;SDS011;23099;42.636;23.198;2023-04-01T08:52:26;11.35;;;1.63;;
37205;SDS011;23099;42.636;23.198;2023-04-01T08:55:21;14.05;;;1.80;;
37205;SDS011;23099;42.636;23.198;2023-04-01T08:57:57;12.73;;;1.98;;
37205;SDS011;23099;42.636;23.198;2023-04-01T09:00:41;12.05;;;1.33;;
37205;SDS011;23099;42.636;23.198;2023-04-01T09:03:21;21.23;;;3.65;;
37205;SDS011;23099;42.636;23.198;2023-04-01T09:12:12;15.15;;;2.63;;
37205;SDS011;23099;42.636;23.198;2023-04-01T09:15:06;10.52;;;1.95;;
37205;SDS011;23099;42.636;23.198;2023-04-01T09:17:59;9.70;;;0.85;;
37205;SDS011;23099;42.636;23.198;2023-04-01T09:20:44;10.63;;;1.20;;
37205;SDS011;23099;42.636;23.198;2023-04-01T09:23:29;8.75;;;1.13;;
37205;SDS011;23099;42.636;23.198;2023-04-01T09:29:02;9.20;;;1.25;;
37205;SDS011;23099;42.636;23.198;2023-04-01T09:31:45;10.77;;;1.00;;
37205;SDS011;23099;42.636;23.198;2023-04-01T09:34:31;8.00;;;1.25;;
37205;SDS011;23099;42.636;23.198;2023-04-01T09:37:18;10.00;;;1.55;;
37205;SDS011;23099;42.636;23.198;2023-04-01T09:39:49;8.98;;;1.27;;
37205;SDS011;23099;42.636;23.198;2023-04-01T09:42:34;13.93;;;2.15;;
37205;SDS011;23099;42.636;23.198;2023-04-01T09:45:09;15.43;;;3.25;;
37205;SDS011;23099;42.636;23.198;2023-04-01T09:47:54;18.02;;;2.72;;
37205;SDS011;23099;42.636;23.198;2023-04-01T09:50:33;8.63;;;1.25;;
37205;SDS011;23099;42.636;23.198;2023-04-01T09:56:00;13.77;;;1.17;;
37205;SDS011;23099;42.636;23.198;2023-04-01T10:05:27;7.40;;;0.80;;
37205;SDS011;23099;42.636;23.198;2023-04-01T10:08:29;11.55;;;1.17;;
37205;SDS011;23099;42.636;23.198;2023-04-01T10:14:33;11.70;;;1.10;;
37205;SDS011;23099;42.636;23.198;2023-04-01T10:17:27;15.95;;;1.60;;
37205;SDS011;23099;42.636;23.198;2023-04-01T10:20:21;11.65;;;1.63;;
37205;SDS011;23099;42.636;23.198;2023-04-01T10:23:24;12.77;;;1.20;;
37205;SDS011;23099;42.636;23.198;2023-04-01T10:26:13;9.80;;;1.00;;
37205;SDS011;23099;42.636;23.198;2023-04-01T10:29:14;6.60;;;1.00;;
37205;SDS011;23099;42.636;23.198;2023-04-01T10:35:02;6.85;;;1.25;;
37205;SDS011;23099;42.636;23.198;2023-04-01T10:38:01;6.90;;;1.27;;
37205;SDS011;23099;42.636;23.198;2023-04-01T10:40:51;8.73;;;1.27;;
37205;SDS011;23099;42.636;23.198;2023-04-01T10:43:38;9.27;;;1.17;;
37205;SDS011;23099;42.636;23.198;2023-04-01T10:49:43;8.48;;;1.75;;
37205;SDS011;23099;42.636;23.198;2023-04-01T10:52:31;7.55;;;1.40;;
37205;SDS011;23099;42.636;23.198;2023-04-01T10:55:43;14.85;;;2.05;;
37205;SDS011;23099;42.636;23.198;2023-04-01T10:58:36;5.15;;;0.85;;
37205;SDS011;23099;42.636;23.198;2023-04-01T11:01:45;6.53;;;1.00;;
37205;SDS011;23099;42.636;23.198;2023-04-01T11:18:06;9.68;;;1.10;;
37205;SDS011;23099;42.636;23.198;2023-04-01T11:23:50;9.05;;;1.42;;
37205;SDS011;23099;42.636;23.198;2023-04-01T11:26:30;8.10;;;1.40;;
37205;SDS011;23099;42.636;23.198;2023-04-01T11:32:20;6.57;;;1.00;;
37205;SDS011;23099;42.636;23.198;2023-04-01T11:37:35;10.80;;;1.20;;
37205;SDS011;23099;42.636;23.198;2023-04-01T11:40:11;8.88;;;1.30;;
37205;SDS011;23099;42.636;23.198;2023-04-01T11:42:51;8.05;;;1.27;;
37205;SDS011;23099;42.636;23.198;2023-04-01T11:45:31;10.35;;;2.08;;
37205;SDS011;23099;42.636;23.198;2023-04-01T11:51:00;9.88;;;1.15;;
37205;SDS011;23099;42.636;23.198;2023-04-01T11:53:41;8.30;;;1.65;;
37205;SDS011;23099;42.636;23.198;2023-04-01T11:56:16;6.70;;;1.73;;
37205;SDS011;23099;42.636;23.198;2023-04-01T11:59:05;10.30;;;2.63;;
37205;SDS011;23099;42.636;23.198;2023-04-01T12:01:54;14.50;;;3.15;;
37205;SDS011;23099;42.636;23.198;2023-04-01T12:04:41;15.77;;;4.93;;
37205;SDS011;23099;42.636;23.198;2023-04-01T12:07:22;14.80;;;3.63;;
37205;SDS011;23099;42.636;23.198;2023-04-01T12:10:04;15.05;;;3.60;;
37205;SDS011;23099;42.636;23.198;2023-04-01T12:12:42;14.05;;;4.80;;
37205;SDS011;23099;42.636;23.198;2023-04-01T12:15:20;15.35;;;5.60;;
37205;SDS011;23099;42.636;23.198;2023-04-01T12:17:55;15.65;;;4.38;;
37205;SDS011;23099;42.636;23.198;2023-04-01T12:20:29;12.00;;;3.60;;
37205;SDS011;23099;42.636;23.198;2023-04-01T12:23:10;15.25;;;4.68;;
37205;SDS011;23099;42.636;23.198;2023-04-01T12:26:00;12.23;;;3.78;;
37205;SDS011;23099;42.636;23.198;2023-04-01T12:28:44;14.45;;;5.18;;
37205;SDS011;23099;42.636;23.198;2023-04-01T12:31:26;12.43;;;3.65;;
37205;SDS011;23099;42.636;23.198;2023-04-01T12:37:07;11.35;;;3.38;;
37205;SDS011;23099;42.636;23.198;2023-04-01T12:42:51;13.73;;;3.15;;
37205;SDS011;23099;42.636;23.198;2023-04-01T12:45:30;9.63;;;2.95;;
37205;SDS011;23099;42.636;23.198;2023-04-01T12:48:06;17.90;;;4.20;;
37205;SDS011;23099;42.636;23.198;2023-04-01T12:53:24;19.48;;;5.85;;
37205;SDS011;23099;42.636;23.198;2023-04-01T12:56:06;26.63;;;10.27;;
37205;SDS011;23099;42.636;23.198;2023-04-01T13:02:01;9.50;;;3.45;;
37205;SDS011;23099;42.636;23.198;2023-04-01T13:04:37;9.75;;;2.28;;
37205;SDS011;23099;42.636;23.198;2023-04-01T13:10:19;6.15;;;1.30;;
37205;SDS011;23099;42.636;23.198;2023-04-01T13:13:02;6.65;;;1.92;;
37205;SDS011;23099;42.636;23.198;2023-04-01T13:15:40;9.50;;;3.33;;
37205;SDS011;23099;42.636;23.198;2023-04-01T13:18:14;6.30;;;1.30;;
37205;SDS011;23099;42.636;23.198;2023-04-01T13:20:49;9.75;;;2.67;;
37205;SDS011;23099;42.636;23.198;2023-04-01T13:23:31;7.85;;;1.33;;
37205;SDS011;23099;42.636;23.198;2023-04-01T13:26:06;3.78;;;0.70;;
37205;SDS011;23099;42.636;23.198;2023-04-01T13:28:42;5.20;;;1.30;;
37205;SDS011;23099;42.636;23.198;2023-04-01T13:31:24;4.55;;;0.90;;
37205;SDS011;23099;42.636;23.198;2023-04-01T13:34:00;3.22;;;0.70;;
37205;SDS011;23099;42.636;23.198;2023-04-01T13:36:43;5.03;;;1.27;;
37205;SDS011;23099;42.636;23.198;2023-04-01T13:39:23;3.28;;;0.80;;
37205;SDS011;23099;42.636;23.198;2023-04-01T13:44:46;8.65;;;1.83;;
37205;SDS011;23099;42.636;23.198;2023-04-01T13:50:26;4.25;;;1.27;;
37205;SDS011;23099;42.636;23.198;2023-04-01T13:53:11;6.30;;;1.85;;
37205;SDS011;23099;42.636;23.198;2023-04-01T13:56:04;4.47;;;1.05;;
37205;SDS011;23099;42.636;23.198;2023-04-01T13:58:43;4.43;;;0.90;;
37205;SDS011;23099;42.636;23.198;2023-04-01T14:01:21;5.40;;;1.20;;
37205;SDS011;23099;42.636;23.198;2023-04-01T14:07:00;4.75;;;1.25;;
37205;SDS011;23099;42.636;23.198;2023-04-01T14:09:45;6.43;;;1.20;;
37205;SDS011;23099;42.636;23.198;2023-04-01T14:12:29;4.85;;;0.80;;
37205;SDS011;23099;42.636;23.198;2023-04-01T14:15:04;3.80;;;0.65;;
37205;SDS011;23099;42.636;23.198;2023-04-01T14:17:51;6.03;;;0.77;;
37205;SDS011;23099;42.636;23.198;2023-04-01T14:20:36;4.38;;;0.63;;
37205;SDS011;23099;42.636;23.198;2023-04-01T14:23:12;4.63;;;0.93;;
37205;SDS011;23099;42.636;23.198;2023-04-01T14:28:43;4.20;;;0.70;;
37205;SDS011;23099;42.636;23.198;2023-04-01T14:34:15;6.32;;;1.00;;
37205;SDS011;23099;42.636;23.198;2023-04-01T14:36:53;8.35;;;0.80;;
37205;SDS011;23099;42.636;23.198;2023-04-01T14:39:51;5.13;;;1.05;;
37205;SDS011;23099;42.636;23.198;2023-04-01T14:42:45;5.13;;;0.60;;
37205;SDS011;23099;42.636;23.198;2023-04-01T14:45:34;4.97;;;1.40;;
37205;SDS011;23099;42.636;23.198;2023-04-01T14:48:25;6.85;;;1.30;;
37205;SDS011;23099;42.636;23.198;2023-04-01T14:51:04;2.17;;;0.50;;
37205;SDS011;23099;42.636;23.198;2023-04-01T14:53:37;4.63;;;0.90;;
37205;SDS011;23099;42.636;23.198;2023-04-01T14:56:10;4.25;;;0.68;;
37205;SDS011;23099;42.636;23.198;2023-04-01T14:58:43;3.63;;;0.80;;
37205;SDS011;23099;42.636;23.198;2023-04-01T15:01:13;1.95;;;0.40;;
37205;SDS011;23099;42.636;23.198;2023-04-01T15:03:53;7.15;;;1.40;;
37205;SDS011;23099;42.636;23.198;2023-04-01T15:06:38;3.95;;;0.70;;
37205;SDS011;23099;42.636;23.198;2023-04-01T15:09:19;3.15;;;0.60;;
37205;SDS011;23099;42.636;23.198;2023-04-01T15:11:58;4.55;;;0.70;;
37205;SDS011;23099;42.636;23.198;2023-04-01T15:14:39;4.13;;;0.85;;
37205;SDS011;23099;42.636;23.198;2023-04-01T15:17:19;4.65;;;0.70;;
37205;SDS011;23099;42.636;23.198;2023-04-01T15:20:02;3.80;;;0.50;;
37205;SDS011;23099;42.636;23.198;2023-04-01T15:25:37;2.28;;;0.55;;
37205;SDS011;23099;42.636;23.198;2023-04-01T15:28:20;3.70;;;0.90;;
37205;SDS011;23099;42.636;23.198;2023-04-01T15:30:56;6.00;;;0.90;;
37205;SDS011;23099;42.636;23.198;2023-04-01T15:33:43;3.08;;;0.75;;
37205;SDS011;23099;42.636;23.198;2023-04-01T15:38:57;3.42;;;0.73;;
37205;SDS011;23099;42.636;23.198;2023-04-01T15:41:34;4.82;;;1.45;;
37205;SDS011;23099;42.636;23.198;2023-04-01T15:44:24;4.85;;;1.05;;
37205;SDS011;23099;42.636;23.198;2023-04-01T15:47:03;5.68;;;1.05;;
37205;SDS011;23099;42.636;23.198;2023-04-01T15:49:50;4.97;;;1.27;;
37205;SDS011;23099;42.636;23.198;2023-04-01T15:52:22;7.03;;;1.20;;
37205;SDS011;23099;42.636;23.198;2023-04-01T15:57:28;2.95;;;0.38;;
37205;SDS011;23099;42.636;23.198;2023-04-01T16:00:15;2.20;;;0.17;;
37205;SDS011;23099;42.636;23.198;2023-04-01T16:02:52;0.80;;;0.20;;
37205;SDS011;23099;42.636;23.198;2023-04-01T16:05:37;0.95;;;0.20;;
37205;SDS011;23099;42.636;23.198;2023-04-01T16:08:23;2.63;;;0.50;;
37205;SDS011;23099;42.636;23.198;2023-04-01T16:11:15;0.65;;;0.15;;
37205;SDS011;23099;42.636;23.198;2023-04-01T16:13:53;0.60;;;0.10;;
37205;SDS011;23099;42.636;23.198;2023-04-01T16:16:31;0.68;;;0.20;;
37205;SDS011;23099;42.636;23.198;2023-04-01T16:21:59;0.50;;;0.20;;
37205;SDS011;23099;42.636;23.198;2023-04-01T16:24:33;1.30;;;0.30;;
37205;SDS011;23099;42.636;23.198;2023-04-01T16:27:05;0.88;;;0.20;;
37205;SDS011;23099;42.636;23.198;2023-04-01T16:29:41;2.53;;;0.45;;
37205;SDS011;23099;42.636;23.198;2023-04-01T16:32:17;3.20;;;0.57;;
37205;SDS011;23099;42.636;23.198;2023-04-01T16:34:54;4.47;;;0.85;;
37205;SDS011;23099;42.636;23.198;2023-04-01T16:37:29;2.70;;;0.52;;
37205;SDS011;23099;42.636;23.198;2023-04-01T16:40:09;3.35;;;0.90;;
37205;SDS011;23099;42.636;23.198;2023-04-01T16:42:43;4.18;;;0.90;;
37205;SDS011;23099;42.636;23.198;2023-04-01T16:45:17;4.90;;;1.17;;
37205;SDS011;23099;42.636;23.198;2023-04-01T16:47:54;2.70;;;0.60;;
37205;SDS011;23099;42.636;23.198;2023-04-01T16:50:27;2.78;;;0.80;;
37205;SDS011;23099;42.636;23.198;2023-04-01T16:53:08;2.55;;;0.57;;
37205;SDS011;23099;42.636;23.198;2023-04-01T16:55:42;3.50;;;0.80;;
37205;SDS011;23099;42.636;23.198;2023-04-01T16:58:14;6.70;;;1.63;;
37205;SDS011;23099;42.636;23.198;2023-04-01T17:00:48;4.28;;;1.35;;
37205;SDS011;23099;42.636;23.198;2023-04-01T17:05:54;3.58;;;1.08;;